createdAt,value
2022-10-14T00:00:34.214Z,2.07
2022-10-14T00:03:01.483Z,2.23
2022-10-14T00:05:28.818Z,2.30
2022-10-14T00:07:56.070Z,1.90
2022-10-14T00:10:23.583Z,2.00
2022-10-14T00:12:50.884Z,2.00
2022-10-14T00:15:18.297Z,2.37
2022-10-14T00:17:45.603Z,1.87
2022-10-14T00:20:13.131Z,1.80
2022-10-14T00:22:40.429Z,2.17
2022-10-14T00:25:07.894Z,2.40
2022-10-14T00:27:37.952Z,2.10
2022-10-14T00:30:05.581Z,2.03
2022-10-14T00:32:32.899Z,2.10
2022-10-14T00:35:00.200Z,1.80
2022-10-14T00:37:30.618Z,1.73
2022-10-14T00:39:57.932Z,2.00
2022-10-14T00:42:26.381Z,2.10
2022-10-14T00:45:01.669Z,2.00
2022-10-14T00:47:30.035Z,2.07
2022-10-14T00:49:57.675Z,1.80
2022-10-14T00:52:25.170Z,1.63
2022-10-14T00:54:55.654Z,2.30
2022-10-14T00:57:24.122Z,2.20
2022-10-14T00:59:52.102Z,2.10
2022-10-14T01:02:19.358Z,2.20
2022-10-14T01:04:46.786Z,1.90
2022-10-14T01:07:25.395Z,1.70
2022-10-14T01:09:52.982Z,1.70
2022-10-14T01:12:31.074Z,1.57
2022-10-14T01:15:16.770Z,1.67
2022-10-14T01:17:58.333Z,1.90
2022-10-14T01:20:28.748Z,2.30
2022-10-14T01:23:13.790Z,2.20
2022-10-14T01:25:44.172Z,1.67
2022-10-14T01:28:25.865Z,2.10
2022-10-14T01:31:01.871Z,1.67
2022-10-14T01:33:34.750Z,1.67
2022-10-14T01:36:08.123Z,1.63
2022-10-14T01:38:38.118Z,1.60
2022-10-14T01:41:11.335Z,1.77
2022-10-14T01:43:39.871Z,2.13
2022-10-14T01:46:07.832Z,1.80
2022-10-14T01:48:37.055Z,2.10
2022-10-14T01:51:07.289Z,2.00
2022-10-14T01:53:40.289Z,1.90
2022-10-14T01:56:08.453Z,2.43
2022-10-14T01:58:37.499Z,1.90
2022-10-14T02:01:05.913Z,1.90
2022-10-14T02:03:40.848Z,2.53
2022-10-14T02:06:10.716Z,1.77
2022-10-14T02:08:58.864Z,2.50
2022-10-14T02:11:26.306Z,1.87
2022-10-14T02:13:58.187Z,2.00
2022-10-14T02:16:25.550Z,2.63
2022-10-14T02:19:07.050Z,1.97
2022-10-14T02:21:42.522Z,2.17
2022-10-14T02:24:31.401Z,2.20
2022-10-14T02:27:00.837Z,1.93
2022-10-14T02:29:28.793Z,1.90
2022-10-14T02:31:57.814Z,2.90
2022-10-14T02:34:26.092Z,2.00
2022-10-14T02:36:54.003Z,2.80
2022-10-14T02:39:25.252Z,2.40
2022-10-14T02:41:52.589Z,2.03
2022-10-14T02:44:20.025Z,2.20
2022-10-14T02:46:47.362Z,2.73
2022-10-14T02:49:14.774Z,2.83
2022-10-14T02:51:44.262Z,3.47
2022-10-14T02:54:12.218Z,3.37
2022-10-14T02:56:39.607Z,2.20
2022-10-14T02:59:06.956Z,3.37
2022-10-14T03:01:37.503Z,3.87
2022-10-14T03:04:06.617Z,3.07
2022-10-14T03:06:33.905Z,3.07
2022-10-14T03:09:01.359Z,2.93
2022-10-14T03:11:32.488Z,3.27
2022-10-14T03:14:04.837Z,2.00
2022-10-14T03:16:32.641Z,3.03
2022-10-14T03:18:59.906Z,3.53
2022-10-14T03:21:40.677Z,2.67
2022-10-14T03:24:13.739Z,2.40
2022-10-14T03:26:42.239Z,3.20
2022-10-14T03:29:09.592Z,2.47
2022-10-14T03:31:58.059Z,1.90
2022-10-14T03:34:44.070Z,3.20
2022-10-14T03:37:16.509Z,3.00
2022-10-14T03:39:49.815Z,2.50
2022-10-14T03:42:18.433Z,2.53
2022-10-14T03:44:48.278Z,3.43
2022-10-14T03:47:20.199Z,3.67
2022-10-14T03:49:47.909Z,3.07
2022-10-14T03:52:27.145Z,2.43
2022-10-14T03:55:12.482Z,2.10
2022-10-14T03:57:42.410Z,3.63
2022-10-14T04:00:10.699Z,2.37
2022-10-14T04:02:49.979Z,2.93
2022-10-14T04:05:33.922Z,3.47
2022-10-14T04:08:05.472Z,3.30
2022-10-14T04:10:32.843Z,2.43
2022-10-14T04:13:00.741Z,3.10
2022-10-14T04:15:38.509Z,3.63
2022-10-14T04:18:14.170Z,3.03
2022-10-14T04:20:43.041Z,2.90
2022-10-14T04:23:11.460Z,3.13
2022-10-14T04:25:41.478Z,3.47
2022-10-14T04:28:08.919Z,1.93
2022-10-14T04:30:50.202Z,2.17
2022-10-14T04:33:24.295Z,2.30
2022-10-14T04:35:51.694Z,3.57
2022-10-14T04:38:26.294Z,4.03
2022-10-14T04:40:58.559Z,2.50
2022-10-14T04:43:26.402Z,2.50
2022-10-14T04:45:54.509Z,3.60
2022-10-14T04:48:26.131Z,3.30
2022-10-14T04:50:54.154Z,2.77
2022-10-14T04:53:43.701Z,2.80
2022-10-14T04:56:23.987Z,2.93
2022-10-14T04:58:59.677Z,2.70
2022-10-14T05:01:45.127Z,3.23
2022-10-14T05:04:12.499Z,3.67
2022-10-14T05:06:42.540Z,2.70
2022-10-14T05:09:12.823Z,3.43
2022-10-14T05:11:40.364Z,4.13
2022-10-14T05:14:07.664Z,4.63
2022-10-14T05:16:37.160Z,3.53
2022-10-14T05:19:06.285Z,2.93
2022-10-14T05:21:37.677Z,3.23
2022-10-14T05:24:12.307Z,3.97
2022-10-14T05:26:40.960Z,4.07
2022-10-14T05:29:11.777Z,3.20
2022-10-14T05:31:40.255Z,3.03
2022-10-14T05:34:21.966Z,3.37
2022-10-14T05:36:49.284Z,3.07
2022-10-14T05:39:17.381Z,3.40
2022-10-14T05:41:44.663Z,3.80
2022-10-14T05:44:12.536Z,3.13
2022-10-14T05:46:40.289Z,2.93
2022-10-14T05:49:08.363Z,3.47
2022-10-14T05:51:38.100Z,2.83
2022-10-14T05:54:14.993Z,3.17
2022-10-14T05:56:43.922Z,3.10
2022-10-14T05:59:11.678Z,2.87
2022-10-14T06:01:40.227Z,2.60
2022-10-14T06:04:08.078Z,2.77
2022-10-14T06:06:35.456Z,3.37
2022-10-14T06:09:03.438Z,2.90
2022-10-14T06:11:32.826Z,2.43
2022-10-14T06:14:00.122Z,2.27
2022-10-14T06:16:27.956Z,2.50
2022-10-14T06:18:55.228Z,2.57
2022-10-14T06:21:23.221Z,2.80
2022-10-14T06:23:50.594Z,2.73
2022-10-14T06:26:17.911Z,2.53
2022-10-14T06:28:45.371Z,1.83
2022-10-14T06:31:12.768Z,2.43
2022-10-14T06:33:40.185Z,2.73
2022-10-14T06:36:07.737Z,2.30
2022-10-14T06:38:35.037Z,2.73
2022-10-14T06:41:02.395Z,2.70
2022-10-14T06:43:29.665Z,2.23
2022-10-14T06:45:57.822Z,2.23
2022-10-14T06:48:25.137Z,2.60
2022-10-14T06:50:52.565Z,2.43
2022-10-14T06:53:19.874Z,2.27
2022-10-14T06:55:47.274Z,2.47
2022-10-14T06:58:14.515Z,2.20
2022-10-14T07:00:47.083Z,2.10
2022-10-14T07:03:15.336Z,1.97
2022-10-14T07:05:42.642Z,2.00
2022-10-14T07:08:12.824Z,2.07
2022-10-14T07:10:42.725Z,2.07
2022-10-14T07:13:10.008Z,2.00
2022-10-14T07:15:38.256Z,2.03
2022-10-14T07:18:06.370Z,1.83
2022-10-14T07:20:36.571Z,1.70
2022-10-14T07:23:03.974Z,2.00
2022-10-14T07:25:32.834Z,1.80
2022-10-14T07:28:00.626Z,2.67
2022-10-14T07:30:27.937Z,2.10
2022-10-14T07:32:55.369Z,2.03
2022-10-14T07:35:22.722Z,2.10
2022-10-14T07:37:50.636Z,2.37
2022-10-14T07:40:17.994Z,1.90
2022-10-14T07:42:45.320Z,1.90
2022-10-14T07:45:18.285Z,2.10
2022-10-14T07:47:47.645Z,2.77
2022-10-14T07:50:15.118Z,1.93
2022-10-14T07:52:42.402Z,2.03
2022-10-14T07:55:10.050Z,1.97
2022-10-14T07:57:37.357Z,2.47
2022-10-14T08:00:05.453Z,2.37
2022-10-14T08:02:39.300Z,2.50
2022-10-14T08:05:36.684Z,1.83
2022-10-14T08:07:53.973Z,2.43
2022-10-14T08:10:21.233Z,2.60
2022-10-14T08:12:48.646Z,2.10
2022-10-14T08:15:15.914Z,1.93
2022-10-14T08:17:43.191Z,2.43
2022-10-14T08:20:10.612Z,2.40
2022-10-14T08:22:37.955Z,2.47
2022-10-14T08:25:05.486Z,2.07
2022-10-14T08:27:32.778Z,2.40
2022-10-14T08:30:00.091Z,2.07
2022-10-14T08:32:27.360Z,2.27
2022-10-14T08:34:56.025Z,2.43
2022-10-14T08:37:23.793Z,3.00
2022-10-14T08:39:51.142Z,2.40
2022-10-14T08:42:26.249Z,2.27
2022-10-14T08:44:58.658Z,2.87
2022-10-14T08:47:30.430Z,2.40
2022-10-14T08:49:58.572Z,2.50
2022-10-14T08:52:31.343Z,1.63
2022-10-14T08:55:03.317Z,2.70
2022-10-14T08:57:36.714Z,2.80
2022-10-14T09:00:04.674Z,2.70
2022-10-14T09:02:41.294Z,2.60
2022-10-14T09:05:14.124Z,2.43
2022-10-14T09:07:41.604Z,2.53
2022-10-14T09:10:12.945Z,2.93
2022-10-14T09:12:40.625Z,2.20
2022-10-14T09:15:17.190Z,2.80
2022-10-14T09:17:50.833Z,2.37
2022-10-14T09:20:21.031Z,2.83
2022-10-14T09:22:56.156Z,2.70
2022-10-14T09:25:23.449Z,2.67
2022-10-14T09:27:50.806Z,2.90
2022-10-14T09:30:18.745Z,2.10
2022-10-14T09:32:49.113Z,2.87
2022-10-14T09:35:19.387Z,2.50
2022-10-14T09:37:46.698Z,2.83
2022-10-14T09:40:14.011Z,2.70
2022-10-14T09:42:57.934Z,2.87
2022-10-14T09:45:26.131Z,3.03
2022-10-14T09:47:54.122Z,2.70
2022-10-14T09:50:24.327Z,2.20
2022-10-14T09:53:15.237Z,2.27
2022-10-14T09:55:49.803Z,2.00
2022-10-14T09:58:18.499Z,2.78
2022-10-14T10:00:47.013Z,2.87
2022-10-14T10:03:32.670Z,2.27
2022-10-14T10:06:05.842Z,2.60
2022-10-14T10:08:33.383Z,3.00
2022-10-14T10:11:06.883Z,2.10
2022-10-14T10:13:34.656Z,2.70
2022-10-14T10:16:03.461Z,2.27
2022-10-14T10:18:31.333Z,1.97
2022-10-14T10:21:05.435Z,2.53
2022-10-14T10:23:34.860Z,2.97
2022-10-14T10:26:37.527Z,2.20
2022-10-14T10:29:05.770Z,2.07
2022-10-14T10:31:48.240Z,2.07
2022-10-14T10:34:25.772Z,2.43
2022-10-14T10:36:57.327Z,2.67
2022-10-14T10:39:33.440Z,2.80
2022-10-14T10:42:09.826Z,2.43
2022-10-14T10:44:47.539Z,2.83
2022-10-14T10:47:14.894Z,3.25
2022-10-14T10:50:00.781Z,2.17
2022-10-14T10:52:30.645Z,2.07
2022-10-14T10:55:02.827Z,2.00
2022-10-14T10:57:42.095Z,2.47
2022-10-14T11:00:11.576Z,2.73
2022-10-14T11:02:59.159Z,2.70
2022-10-14T11:05:38.494Z,2.37
2022-10-14T11:08:36.052Z,2.67
2022-10-14T11:11:35.383Z,2.23
2022-10-14T11:14:10.392Z,2.17
2022-10-14T11:16:56.208Z,2.50
2022-10-14T11:19:29.345Z,1.80
2022-10-14T11:22:15.496Z,2.57
2022-10-14T11:24:44.160Z,2.13
2022-10-14T11:27:28.014Z,2.47
2022-10-14T11:30:13.673Z,1.97
2022-10-14T11:32:52.830Z,2.10
2022-10-14T11:35:25.217Z,2.00
2022-10-14T11:38:06.099Z,1.97
2022-10-14T11:40:53.634Z,1.80
2022-10-14T11:43:23.687Z,2.00
2022-10-14T11:45:58.276Z,1.70
2022-10-14T11:48:32.598Z,3.03
2022-10-14T11:51:08.126Z,1.93
2022-10-14T11:53:35.522Z,1.73
2022-10-14T11:56:12.720Z,1.90
2022-10-14T11:58:40.813Z,2.33
2022-10-14T12:01:09.115Z,1.80
2022-10-14T12:03:46.127Z,1.70
2022-10-14T12:06:16.296Z,2.10
2022-10-14T12:08:46.855Z,2.00
2022-10-14T12:11:22.747Z,1.63
2022-10-14T12:13:52.317Z,2.00
2022-10-14T12:16:20.864Z,1.50
2022-10-14T12:18:50.354Z,1.60
2022-10-14T12:21:24.721Z,1.53
2022-10-14T12:23:58.897Z,1.77
2022-10-14T12:26:26.204Z,1.83
2022-10-14T12:28:54.285Z,1.57
2022-10-14T12:31:22.379Z,1.40
2022-10-14T12:34:15.750Z,1.10
2022-10-14T12:36:44.362Z,1.40
2022-10-14T12:39:17.528Z,1.30
2022-10-14T12:41:53.830Z,1.50
2022-10-14T12:44:21.881Z,1.30
2022-10-14T12:46:53.281Z,1.00
2022-10-14T12:49:34.411Z,1.13
2022-10-14T12:52:03.849Z,1.40
2022-10-14T12:54:31.659Z,1.13
2022-10-14T12:57:01.824Z,0.93
2022-10-14T12:59:31.752Z,1.13
2022-10-14T13:02:01.422Z,1.10
2022-10-14T13:04:28.985Z,1.40
2022-10-14T13:07:45.455Z,1.23
2022-10-14T13:10:28.782Z,1.40
2022-10-14T13:12:56.227Z,1.03
2022-10-14T13:15:36.121Z,1.23
2022-10-14T13:18:21.885Z,1.20
2022-10-14T13:20:51.480Z,1.30
2022-10-14T13:23:27.900Z,1.20
2022-10-14T13:26:16.047Z,1.20
2022-10-14T13:28:47.717Z,1.30
2022-10-14T13:31:22.703Z,1.10
2022-10-14T13:33:57.770Z,1.03
2022-10-14T13:36:31.236Z,0.87
2022-10-14T13:39:00.641Z,1.00
2022-10-14T13:41:31.385Z,1.13
2022-10-14T13:43:59.895Z,1.17
2022-10-14T13:46:32.962Z,1.27
2022-10-14T13:49:07.188Z,1.50
2022-10-14T13:51:45.044Z,1.20
2022-10-14T13:54:23.460Z,1.13
2022-10-14T13:57:28.679Z,1.20
2022-10-14T14:02:40.228Z,1.10
2022-10-14T14:05:13.974Z,1.10
2022-10-14T14:10:31.590Z,0.93
2022-10-14T14:13:00.339Z,1.10
2022-10-14T14:15:29.848Z,1.00
2022-10-14T14:17:57.207Z,1.20
2022-10-14T14:20:27.990Z,0.97
2022-10-14T14:22:59.604Z,1.10
2022-10-14T14:25:36.938Z,1.00
2022-10-14T14:28:15.527Z,1.17
2022-10-14T14:30:50.655Z,1.30
2022-10-14T14:33:32.166Z,1.10
2022-10-14T14:36:01.204Z,0.93
2022-10-14T14:38:38.481Z,1.00
2022-10-14T14:41:07.352Z,1.23
2022-10-14T14:43:37.542Z,1.03
2022-10-14T14:46:15.680Z,1.00
2022-10-14T14:48:43.175Z,1.00
2022-10-14T14:51:13.407Z,1.00
2022-10-14T14:53:42.351Z,1.27
2022-10-14T14:56:14.441Z,1.10
2022-10-14T14:58:49.163Z,1.17
2022-10-14T15:01:35.928Z,1.00
2022-10-14T15:04:12.232Z,1.13
2022-10-14T15:06:51.068Z,1.10
2022-10-14T15:09:24.272Z,1.17
2022-10-14T15:11:54.562Z,1.00
2022-10-14T15:14:30.644Z,1.20
2022-10-14T15:16:59.925Z,1.20
2022-10-14T15:19:35.642Z,1.00
2022-10-14T15:22:23.980Z,1.00
2022-10-14T15:25:13.496Z,1.00
2022-10-14T15:27:45.777Z,1.10
2022-10-14T15:30:23.421Z,1.00
2022-10-14T15:32:51.784Z,1.30
2022-10-14T15:35:20.550Z,1.30
2022-10-14T15:37:47.918Z,1.20
2022-10-14T15:40:18.874Z,1.33
2022-10-14T15:42:47.032Z,1.30
2022-10-14T15:45:14.531Z,1.30
2022-10-14T15:47:41.894Z,1.17
2022-10-14T15:50:13.775Z,1.03
2022-10-14T15:52:41.153Z,1.17
2022-10-14T15:55:16.903Z,1.60
2022-10-14T15:57:44.225Z,1.10
2022-10-14T16:00:11.756Z,1.17
2022-10-14T16:02:40.990Z,1.20
2022-10-14T16:05:25.152Z,1.40
2022-10-14T16:07:52.472Z,1.33
2022-10-14T16:10:21.071Z,1.27
2022-10-14T16:12:48.707Z,1.30
2022-10-14T16:15:21.818Z,1.53
2022-10-14T16:17:52.079Z,1.50
2022-10-14T16:20:21.415Z,1.20
2022-10-14T16:22:48.952Z,1.17
2022-10-14T16:25:45.687Z,1.43
2022-10-14T16:28:18.822Z,1.57
2022-10-14T16:30:49.314Z,1.30
2022-10-14T16:33:17.426Z,1.63
2022-10-14T16:35:45.489Z,1.37
2022-10-14T16:38:13.004Z,1.40
2022-10-14T16:40:40.285Z,1.50
2022-10-14T16:43:07.652Z,1.60
2022-10-14T16:45:34.971Z,1.63
2022-10-14T16:48:02.293Z,1.63
2022-10-14T16:50:29.570Z,1.63
2022-10-14T16:53:15.695Z,1.90
2022-10-14T16:55:43.185Z,1.20
2022-10-14T16:58:10.464Z,2.00
2022-10-14T17:00:37.798Z,1.67
2022-10-14T17:03:10.460Z,1.63
2022-10-14T17:05:37.729Z,2.00
2022-10-14T17:08:07.758Z,1.60
2022-10-14T17:10:35.057Z,1.60
2022-10-14T17:13:02.415Z,1.30
2022-10-14T17:15:31.099Z,1.63
2022-10-14T17:17:58.361Z,1.23
2022-10-14T17:20:26.657Z,1.70
2022-10-14T17:22:55.062Z,1.50
2022-10-14T17:25:22.403Z,2.10
2022-10-14T17:27:50.126Z,1.60
2022-10-14T17:30:18.505Z,1.80
2022-10-14T17:32:46.585Z,1.40
2022-10-14T17:35:15.322Z,1.60
2022-10-14T17:37:45.293Z,1.40
2022-10-14T17:40:13.092Z,1.50
2022-10-14T17:42:41.801Z,1.37
2022-10-14T17:45:09.367Z,1.50
2022-10-14T17:47:36.709Z,1.50
2022-10-14T17:50:04.052Z,1.30
2022-10-14T17:52:31.388Z,1.80
2022-10-14T17:55:01.309Z,1.40
2022-10-14T17:57:29.010Z,2.03
2022-10-14T17:59:56.358Z,1.53
2022-10-14T18:02:23.769Z,1.63
2022-10-14T18:04:51.102Z,1.60
2022-10-14T18:07:22.158Z,1.97
2022-10-14T18:09:50.271Z,1.73
2022-10-14T18:12:17.722Z,1.70
2022-10-14T18:14:45.033Z,1.83
2022-10-14T18:17:19.659Z,2.00
2022-10-14T18:19:51.842Z,1.70
2022-10-14T18:22:19.572Z,1.70
2022-10-14T18:24:47.293Z,2.00
2022-10-14T18:27:14.618Z,1.60
2022-10-14T18:29:42.345Z,1.70
2022-10-14T18:32:09.700Z,1.70
2022-10-14T18:34:37.056Z,2.20
2022-10-14T18:37:04.440Z,1.43
2022-10-14T18:39:31.758Z,1.60
2022-10-14T18:41:59.077Z,1.87
2022-10-14T18:44:26.372Z,2.20
2022-10-14T18:46:53.638Z,2.03
2022-10-14T18:49:20.949Z,2.07
2022-10-14T18:51:48.238Z,1.73
2022-10-14T18:54:17.226Z,2.60
2022-10-14T18:56:44.883Z,1.73
2022-10-14T18:59:13.995Z,1.60
2022-10-14T19:01:42.097Z,1.70
2022-10-14T19:04:11.649Z,2.57
2022-10-14T19:06:39.427Z,1.83
2022-10-14T19:09:06.743Z,1.97
2022-10-14T19:11:35.371Z,1.80
2022-10-14T19:14:04.566Z,1.87
2022-10-14T19:16:33.603Z,2.10
2022-10-14T19:19:04.031Z,1.93
2022-10-14T19:21:32.205Z,2.37
2022-10-14T19:24:00.344Z,1.80
2022-10-14T19:26:30.973Z,2.73
2022-10-14T19:28:59.228Z,1.90
2022-10-14T19:31:27.678Z,2.00
2022-10-14T19:33:55.726Z,2.53
2022-10-14T19:36:23.822Z,1.60
2022-10-14T19:38:55.117Z,1.40
2022-10-14T19:41:22.458Z,1.93
2022-10-14T19:43:49.816Z,2.20
2022-10-14T19:46:17.123Z,1.73
2022-10-14T19:48:44.447Z,2.17
2022-10-14T19:51:11.724Z,1.67
2022-10-14T19:53:39.393Z,2.40
2022-10-14T19:56:08.581Z,1.40
2022-10-14T19:58:38.560Z,2.07
2022-10-14T20:01:09.519Z,1.83
2022-10-14T20:03:36.863Z,1.80
2022-10-14T20:06:04.502Z,2.60
2022-10-14T20:08:32.337Z,2.40
2022-10-14T20:11:06.428Z,2.90
2022-10-14T20:13:33.788Z,2.20
2022-10-14T20:16:01.803Z,2.67
2022-10-14T20:18:29.721Z,2.47
2022-10-14T20:20:57.263Z,3.33
2022-10-14T20:23:25.347Z,2.60
2022-10-14T20:25:52.737Z,3.53
2022-10-14T20:28:20.112Z,2.50
2022-10-14T20:30:48.304Z,1.90
2022-10-14T20:33:15.983Z,2.50
2022-10-14T20:35:43.302Z,3.70
2022-10-14T20:38:10.620Z,3.33
2022-10-14T20:40:38.221Z,2.70
2022-10-14T20:43:05.547Z,2.30
2022-10-14T20:45:33.019Z,2.23
2022-10-14T20:48:00.308Z,2.20
2022-10-14T20:50:27.549Z,3.23
2022-10-14T20:52:54.918Z,2.67
2022-10-14T20:55:22.170Z,2.93
2022-10-14T20:57:49.459Z,4.37
2022-10-14T21:00:16.798Z,3.83
2022-10-14T21:05:16.512Z,3.07
2022-10-14T21:07:43.767Z,3.67
2022-10-14T21:10:11.081Z,3.30
2022-10-14T21:12:38.372Z,2.17
2022-10-14T21:15:05.813Z,3.10
2022-10-14T21:17:33.159Z,3.97
2022-10-14T21:20:00.430Z,2.63
2022-10-14T21:22:27.761Z,2.63
2022-10-14T21:24:55.016Z,3.20
2022-10-14T21:27:22.532Z,3.47
2022-10-14T21:29:50.869Z,4.13
2022-10-14T21:32:18.131Z,3.17
2022-10-14T21:34:45.511Z,3.33
2022-10-14T21:37:12.870Z,2.37
2022-10-14T21:39:40.176Z,3.00
2022-10-14T21:42:07.449Z,2.97
2022-10-14T21:44:34.738Z,3.60
2022-10-14T21:47:02.118Z,3.40
2022-10-14T21:49:29.392Z,3.33
2022-10-14T21:51:56.739Z,3.53
2022-10-14T21:54:24.771Z,3.47
2022-10-14T21:56:52.221Z,3.00
2022-10-14T21:59:19.530Z,3.70
2022-10-14T22:01:46.875Z,3.30
2022-10-14T22:04:14.134Z,2.70
2022-10-14T22:06:41.446Z,3.63
2022-10-14T22:09:08.768Z,2.97
2022-10-14T22:11:40.806Z,2.50
2022-10-14T22:14:10.894Z,3.40
2022-10-14T22:16:38.263Z,3.00
2022-10-14T22:19:06.598Z,3.60
2022-10-14T22:21:34.862Z,2.43
2022-10-14T22:24:02.193Z,3.73
2022-10-14T22:26:30.144Z,3.30
2022-10-14T22:29:01.382Z,3.17
2022-10-14T22:31:29.224Z,3.23
2022-10-14T22:33:56.506Z,3.37
2022-10-14T22:36:24.817Z,3.57
2022-10-14T22:38:52.998Z,2.97
2022-10-14T22:41:20.783Z,3.37
2022-10-14T22:43:49.128Z,3.30
2022-10-14T22:46:17.192Z,3.43
2022-10-14T22:48:44.448Z,3.77
2022-10-14T22:51:12.949Z,2.60
2022-10-14T22:53:41.129Z,3.30
2022-10-14T22:56:09.747Z,3.00
2022-10-14T22:58:37.098Z,2.67
2022-10-14T23:01:08.294Z,3.10
2022-10-14T23:03:36.214Z,2.57
2022-10-14T23:06:04.731Z,3.17
2022-10-14T23:08:32.860Z,3.33
2022-10-14T23:11:00.406Z,3.37
2022-10-14T23:13:27.944Z,3.17
2022-10-14T23:15:55.913Z,2.90
2022-10-14T23:18:23.900Z,3.00
2022-10-14T23:20:51.276Z,3.20
2022-10-14T23:23:18.629Z,2.70
2022-10-14T23:25:46.167Z,2.87
2022-10-14T23:28:13.430Z,2.53
2022-10-14T23:30:40.689Z,3.33
2022-10-14T23:33:10.799Z,3.07
2022-10-14T23:35:39.006Z,3.13
2022-10-14T23:38:06.314Z,2.77
2022-10-14T23:40:33.901Z,2.93
2022-10-14T23:43:01.470Z,2.70
2022-10-14T23:45:28.770Z,3.60
2022-10-14T23:47:56.070Z,2.73
2022-10-14T23:50:23.361Z,3.60
2022-10-14T23:52:50.629Z,3.07
2022-10-14T23:55:17.888Z,3.27
2022-10-14T23:57:45.158Z,3.37
